Time;durP1;ratioP1;P1;durP2;ratioP2;P2;SDS_P1;SDS_P2;PMS_P1;PMS_P2;Temp;Humidity;BMP_temperature;BMP_pressure;BME280_temperature;BME280_humidity;BME280_pressure;Samples;Min_cycle;Max_cycle;Signal;HPM_P1;HPM_P2
2022/05/07 00:02:29;;;;;;;;;58.25;47.00;;;;;;;;5035687;28;8785;-54
2022/05/07 00:05:15;;;;;;;;;60.50;47.00;;;;;;;;5035613;28;8788;-51
2022/05/07 00:07:59;;;;;;;;;59.25;48.25;;;;;;;;5035378;28;8788;-54
2022/05/07 00:10:45;;;;;;;;;56.00;45.50;;;;;;;;5035611;28;8800;-53
2022/05/07 00:13:30;;;;;;;;;56.50;45.50;;;;;;;;5031073;28;9527;-49
2022/05/07 00:19:19;;;;;;;;;53.00;43.25;;;;;;;;5035176;28;8776;-53
2022/05/07 00:22:04;;;;;;;;;56.75;44.75;;;;;;;;5034907;28;8785;-52
2022/05/07 00:24:53;;;;;;;;;53.00;44.00;;;;;;;;5035244;28;8772;-50
2022/05/07 00:27:37;;;;;;;;;53.50;43.75;;;;;;;;5035200;28;9547;-49
2022/05/07 00:30:21;;;;;;;;;51.00;41.75;;;;;;;;5034973;28;8914;-52
2022/05/07 00:33:06;;;;;;;;;53.00;43.00;;;;;;;;5017224;28;8779;-51
2022/05/07 00:35:51;;;;;;;;;49.25;41.25;;;;;;;;5034997;28;8780;-52
2022/05/07 00:38:38;;;;;;;;;52.25;40.25;;;;;;;;5035092;28;8898;-54
2022/05/07 00:41:23;;;;;;;;;50.75;41.25;;;;;;;;5034755;28;8776;-49
2022/05/07 00:44:07;;;;;;;;;50.00;42.00;;;;;;;;5035010;28;8788;-50
2022/05/07 00:46:52;;;;;;;;;39.50;32.00;;;;;;;;5034872;28;9674;-54
2022/05/07 00:49:37;;;;;;;;;45.50;37.25;;;;;;;;5034662;28;8785;-52
2022/05/07 00:52:21;;;;;;;;;45.50;36.50;;;;;;;;5034637;28;8800;-53
2022/05/07 00:55:06;;;;;;;;;44.75;35.50;;;;;;;;5034812;28;8804;-50
2022/05/07 00:57:51;;;;;;;;;44.75;38.00;;;;;;;;5034672;28;8792;-49
2022/05/07 01:00:38;;;;;;;;;44.75;36.00;;;;;;;;5034444;28;8792;-51
2022/05/07 01:03:22;;;;;;;;;43.25;35.50;;;;;;;;5034372;28;8785;-53
2022/05/07 01:06:07;;;;;;;;;44.25;35.00;;;;;;;;5033939;28;9618;-49
2022/05/07 01:08:55;;;;;;;;;43.50;35.25;;;;;;;;5033921;28;8781;-51
2022/05/07 01:11:41;;;;;;;;;42.00;33.50;;;;;;;;5033831;28;8812;-54
2022/05/07 01:14:26;;;;;;;;;39.50;33.50;;;;;;;;5034307;28;8800;-50
2022/05/07 01:17:11;;;;;;;;;33.75;32.25;;;;;;;;5034494;28;8918;-50
2022/05/07 01:19:58;;;;;;;;;38.50;32.00;;;;;;;;5033846;28;8812;-50
2022/05/07 01:22:47;;;;;;;;;38.00;34.25;;;;;;;;5027455;28;8791;-52
2022/05/07 01:25:31;;;;;;;;;41.00;35.50;;;;;;;;5029969;28;8785;-50
2022/05/07 01:28:17;;;;;;;;;34.50;32.50;;;;;;;;5034690;28;8784;-52
2022/05/07 01:31:01;;;;;;;;;38.50;33.25;;;;;;;;5032923;28;8776;-52
2022/05/07 01:33:45;;;;;;;;;42.75;32.25;;;;;;;;5034107;28;9571;-53
2022/05/07 01:36:29;;;;;;;;;38.50;32.50;;;;;;;;5046863;28;8801;-48
2022/05/07 01:39:16;;;;;;;;;30.00;29.00;;;;;;;;5034014;28;8789;-52
2022/05/07 01:42:03;;;;;;;;;31.00;30.00;;;;;;;;5034017;28;8788;-49
2022/05/07 01:44:56;;;;;;;;;30.00;28.75;;;;;;;;5033735;28;8793;-52
2022/05/07 01:50:47;;;;;;;;;29.25;26.00;;;;;;;;5033841;28;8792;-49
2022/05/07 01:53:41;;;;;;;;;24.50;23.00;;;;;;;;5033877;28;8776;-52
2022/05/07 01:56:26;;;;;;;;;23.25;22.75;;;;;;;;5033819;28;8784;-51
2022/05/07 01:59:10;;;;;;;;;27.00;25.00;;;;;;;;5033865;28;8780;-51
2022/05/07 02:01:54;;;;;;;;;26.75;23.25;;;;;;;;5033627;28;8788;-53
2022/05/07 02:04:39;;;;;;;;;27.75;24.75;;;;;;;;5033813;28;8772;-54
2022/05/07 02:07:24;;;;;;;;;25.50;24.75;;;;;;;;5033701;28;8808;-51
2022/05/07 02:10:09;;;;;;;;;28.50;24.75;;;;;;;;5033610;28;8776;-53
2022/05/07 02:12:53;;;;;;;;;25.50;22.25;;;;;;;;5033872;28;8769;-49
2022/05/07 02:15:38;;;;;;;;;28.25;22.75;;;;;;;;5033616;28;8780;-52
2022/05/07 02:18:24;;;;;;;;;27.00;25.50;;;;;;;;5033465;28;8820;-52
2022/05/07 02:21:09;;;;;;;;;22.00;22.00;;;;;;;;5033449;28;8788;-50
2022/05/07 02:23:55;;;;;;;;;28.00;24.00;;;;;;;;5033544;28;8776;-51
2022/05/07 02:26:42;;;;;;;;;26.00;22.25;;;;;;;;5033377;28;8789;-52
2022/05/07 02:29:27;;;;;;;;;25.25;23.25;;;;;;;;5033427;28;8768;-52
2022/05/07 02:32:13;;;;;;;;;30.25;25.50;;;;;;;;5033506;28;8769;-50
2022/05/07 02:34:58;;;;;;;;;27.75;24.50;;;;;;;;5033495;28;8792;-49
2022/05/07 02:37:44;;;;;;;;;26.00;23.00;;;;;;;;5033360;28;8769;-52
2022/05/07 02:40:28;;;;;;;;;28.25;24.00;;;;;;;;5033135;28;8808;-52
2022/05/07 02:43:14;;;;;;;;;25.25;23.25;;;;;;;;5033540;28;8879;-51
2022/05/07 02:45:59;;;;;;;;;27.75;25.50;;;;;;;;5033196;28;8796;-54
2022/05/07 02:48:46;;;;;;;;;25.00;24.00;;;;;;;;5034889;28;8796;-50
2022/05/07 02:51:31;;;;;;;;;28.25;25.50;;;;;;;;5036446;28;8796;-53
2022/05/07 02:54:16;;;;;;;;;32.75;26.75;;;;;;;;5036596;28;8772;-52
2022/05/07 02:57:04;;;;;;;;;26.50;26.50;;;;;;;;5036701;28;9704;-53
2022/05/07 02:59:48;;;;;;;;;25.75;23.75;;;;;;;;5036370;28;8773;-50
2022/05/07 03:02:33;;;;;;;;;23.75;20.75;;;;;;;;5036435;28;8776;-51
2022/05/07 03:05:19;;;;;;;;;28.75;25.25;;;;;;;;5036598;28;8772;-51
2022/05/07 03:08:04;;;;;;;;;30.25;24.25;;;;;;;;5036356;28;8866;-50
2022/05/07 03:10:50;;;;;;;;;30.25;24.00;;;;;;;;5036182;28;8784;-52
2022/05/07 03:13:34;;;;;;;;;26.25;21.75;;;;;;;;5036480;28;8796;-50
2022/05/07 03:16:22;;;;;;;;;28.50;26.25;;;;;;;;5036356;28;8788;-52
2022/05/07 03:19:07;;;;;;;;;27.75;26.75;;;;;;;;5036018;28;8796;-53
2022/05/07 03:21:51;;;;;;;;;27.00;24.25;;;;;;;;5036144;28;8777;-51
2022/05/07 03:24:38;;;;;;;;;27.50;25.50;;;;;;;;5023942;28;8796;-50
2022/05/07 03:27:23;;;;;;;;;30.25;28.50;;;;;;;;5036176;28;8851;-51
2022/05/07 03:30:08;;;;;;;;;33.00;29.75;;;;;;;;5035902;28;8773;-52
2022/05/07 03:32:52;;;;;;;;;34.75;28.25;;;;;;;;5035843;28;9586;-51
2022/05/07 03:35:36;;;;;;;;;31.00;29.25;;;;;;;;5036030;28;8911;-49
2022/05/07 03:38:23;;;;;;;;;32.50;28.25;;;;;;;;5036077;28;8776;-51
2022/05/07 03:41:08;;;;;;;;;36.00;30.00;;;;;;;;5035878;28;8780;-53
2022/05/07 03:43:53;;;;;;;;;31.25;29.50;;;;;;;;5036007;28;8780;-53
2022/05/07 03:46:37;;;;;;;;;38.75;34.00;;;;;;;;5035879;28;8796;-50
2022/05/07 03:49:23;;;;;;;;;46.75;38.00;;;;;;;;5035620;28;8796;-51
2022/05/07 03:55:13;;;;;;;;;49.00;39.00;;;;;;;;5035619;28;8773;-52
2022/05/07 03:57:57;;;;;;;;;37.50;30.25;;;;;;;;5031332;28;8792;-53
2022/05/07 04:00:42;;;;;;;;;40.75;34.25;;;;;;;;5035302;28;8780;-52
2022/05/07 04:03:28;;;;;;;;;35.25;32.25;;;;;;;;5035704;28;8772;-50
2022/05/07 04:06:13;;;;;;;;;38.50;33.75;;;;;;;;5035536;28;8800;-51
2022/05/07 04:08:57;;;;;;;;;29.50;27.75;;;;;;;;5035700;28;8785;-53
2022/05/07 04:11:41;;;;;;;;;49.75;42.75;;;;;;;;5035250;28;8820;-53
2022/05/07 04:14:28;;;;;;;;;56.50;45.25;;;;;;;;5035275;28;8796;-50
2022/05/07 04:17:16;;;;;;;;;46.50;39.00;;;;;;;;5035226;28;8796;-51
2022/05/07 04:20:01;;;;;;;;;53.25;44.00;;;;;;;;5035146;28;8813;-50
2022/05/07 04:22:45;;;;;;;;;108.50;88.25;;;;;;;;5034779;28;8784;-52
2022/05/07 04:25:30;;;;;;;;;44.25;36.50;;;;;;;;5034506;28;8820;-52
2022/05/07 04:28:14;;;;;;;;;26.50;26.00;;;;;;;;5034448;28;8768;-50
2022/05/07 04:30:59;;;;;;;;;27.00;24.75;;;;;;;;5028041;28;8796;-50
2022/05/07 04:33:43;;;;;;;;;52.00;43.25;;;;;;;;5018408;28;8799;-50
2022/05/07 04:36:28;;;;;;;;;34.75;30.00;;;;;;;;5017580;28;8826;-49
2022/05/07 04:39:13;;;;;;;;;25.25;23.25;;;;;;;;5031345;28;8835;-47
2022/05/07 04:42:00;;;;;;;;;29.00;27.00;;;;;;;;5022357;28;8800;-50
2022/05/07 04:44:44;;;;;;;;;34.75;31.25;;;;;;;;5020940;28;8780;-53
2022/05/07 04:47:28;;;;;;;;;31.25;29.25;;;;;;;;5015249;28;8810;-49
2022/05/07 04:50:13;;;;;;;;;40.25;35.25;;;;;;;;5014893;28;8791;-52
2022/05/07 04:52:58;;;;;;;;;42.75;36.25;;;;;;;;5014998;28;8787;-53
2022/05/07 04:55:42;;;;;;;;;44.00;35.25;;;;;;;;5014855;28;8771;-50
2022/05/07 04:58:28;;;;;;;;;34.25;30.25;;;;;;;;5014922;28;8779;-51
2022/05/07 05:01:12;;;;;;;;;31.50;27.75;;;;;;;;5014922;28;8787;-51
2022/05/07 05:04:03;;;;;;;;;36.75;26.75;;;;;;;;5032138;28;8796;-48
2022/05/07 05:06:48;;;;;;;;;37.25;30.25;;;;;;;;5034426;28;8816;-50
2022/05/07 05:09:34;;;;;;;;;41.75;36.00;;;;;;;;5034416;28;8812;-51
2022/05/07 05:12:19;;;;;;;;;56.25;45.00;;;;;;;;5033739;28;8788;-51
2022/05/07 05:15:06;;;;;;;;;54.75;43.50;;;;;;;;5034396;28;8812;-53
2022/05/07 05:17:50;;;;;;;;;51.00;41.75;;;;;;;;5034373;28;8804;-49
2022/05/07 05:20:37;;;;;;;;;51.00;40.00;;;;;;;;5014437;28;8933;-53
2022/05/07 05:23:23;;;;;;;;;52.00;40.50;;;;;;;;5014511;28;8787;-52
2022/05/07 05:26:08;;;;;;;;;50.00;39.25;;;;;;;;5013147;28;8807;-52
2022/05/07 05:28:53;;;;;;;;;49.75;36.75;;;;;;;;5023103;28;9588;-53
2022/05/07 05:31:37;;;;;;;;;46.00;36.75;;;;;;;;5034174;28;8765;-50
2022/05/07 05:34:23;;;;;;;;;44.00;35.00;;;;;;;;5033902;28;8781;-54
2022/05/07 05:37:08;;;;;;;;;44.50;34.75;;;;;;;;5024577;28;8804;-52
2022/05/07 05:39:53;;;;;;;;;33.50;31.00;;;;;;;;5025257;28;8771;-51
2022/05/07 05:42:38;;;;;;;;;40.00;35.75;;;;;;;;5019414;28;9675;-50
2022/05/07 05:45:24;;;;;;;;;56.25;43.75;;;;;;;;5031418;28;8772;-52
2022/05/07 05:48:08;;;;;;;;;51.50;43.25;;;;;;;;5030549;28;8812;-51
2022/05/07 05:50:53;;;;;;;;;47.25;40.00;;;;;;;;5015843;28;8778;-54
2022/05/07 05:53:37;;;;;;;;;41.00;34.25;;;;;;;;5013099;28;8787;-51
2022/05/07 05:56:21;;;;;;;;;33.25;29.00;;;;;;;;5013101;28;8783;-54
2022/05/07 05:59:05;;;;;;;;;46.50;38.50;;;;;;;;5013198;28;8779;-50
2022/05/07 06:01:50;;;;;;;;;43.00;33.25;;;;;;;;5030943;28;10022;-50
2022/05/07 06:04:37;;;;;;;;;52.25;39.25;;;;;;;;5012909;28;8782;-51
2022/05/07 06:07:22;;;;;;;;;39.25;32.00;;;;;;;;5012943;28;8803;-53
2022/05/07 06:10:07;;;;;;;;;40.00;31.25;;;;;;;;5014997;28;8799;-51
2022/05/07 06:12:51;;;;;;;;;27.00;26.75;;;;;;;;5012961;28;8906;-53
2022/05/07 06:15:37;;;;;;;;;35.50;30.00;;;;;;;;5013555;28;8811;-54
2022/05/07 06:18:22;;;;;;;;;35.50;30.50;;;;;;;;5029151;28;8796;-53
2022/05/07 06:21:07;;;;;;;;;36.50;32.25;;;;;;;;5032417;28;8792;-52
2022/05/07 06:23:52;;;;;;;;;45.00;38.25;;;;;;;;5036373;28;8769;-52
2022/05/07 06:29:41;;;;;;;;;46.00;38.25;;;;;;;;5024437;28;8775;-54
2022/05/07 06:32:36;;;;;;;;;47.25;39.00;;;;;;;;5016967;28;8787;-51
2022/05/07 06:35:20;;;;;;;;;46.00;38.75;;;;;;;;5019809;28;8819;-52
2022/05/07 06:38:05;;;;;;;;;45.75;36.25;;;;;;;;5017092;28;8795;-52
2022/05/07 06:40:50;;;;;;;;;44.25;36.25;;;;;;;;5016848;28;8779;-54
2022/05/07 06:43:42;;;;;;;;;47.00;37.00;;;;;;;;5032302;28;8956;-53
2022/05/07 06:46:31;;;;;;;;;41.00;35.50;;;;;;;;5016533;28;8798;-54
2022/05/07 06:49:18;;;;;;;;;43.25;33.25;;;;;;;;5032659;28;8780;-53
2022/05/07 06:52:04;;;;;;;;;39.25;34.75;;;;;;;;5022058;28;8779;-51
2022/05/07 06:54:48;;;;;;;;;38.75;34.25;;;;;;;;5016547;28;8779;-52
2022/05/07 06:57:32;;;;;;;;;38.25;30.25;;;;;;;;5016589;28;9546;-54
2022/05/07 07:00:17;;;;;;;;;40.75;33.25;;;;;;;;5036281;28;8764;-53
2022/05/07 07:03:01;;;;;;;;;36.00;32.00;;;;;;;;5036219;28;8780;-54
2022/05/07 07:05:47;;;;;;;;;41.25;35.00;;;;;;;;5035234;28;8796;-52
2022/05/07 07:08:33;;;;;;;;;39.00;33.25;;;;;;;;5018982;28;8783;-53
2022/05/07 07:11:17;;;;;;;;;31.75;29.25;;;;;;;;5016212;28;9589;-52
2022/05/07 07:14:02;;;;;;;;;30.50;29.00;;;;;;;;5013542;28;8783;-54
2022/05/07 07:16:47;;;;;;;;;38.50;31.75;;;;;;;;5015143;28;8794;-54
2022/05/07 07:19:34;;;;;;;;;44.50;33.75;;;;;;;;5015802;28;8937;-51
2022/05/07 07:22:18;;;;;;;;;43.00;35.25;;;;;;;;5027372;28;8777;-51
2022/05/07 07:25:08;;;;;;;;;37.50;32.75;;;;;;;;5019627;28;8771;-54
2022/05/07 07:27:54;;;;;;;;;39.75;33.00;;;;;;;;5015227;28;8815;-51
2022/05/07 07:30:38;;;;;;;;;35.00;32.00;;;;;;;;5016266;28;8787;-53
2022/05/07 07:33:23;;;;;;;;;34.75;31.50;;;;;;;;5018215;28;8779;-52
2022/05/07 07:36:11;;;;;;;;;30.50;28.75;;;;;;;;5016008;28;8779;-51
2022/05/07 07:39:06;;;;;;;;;36.50;30.00;;;;;;;;5015516;28;8779;-55
2022/05/07 07:41:51;;;;;;;;;27.25;27.25;;;;;;;;5016142;28;8787;-54
2022/05/07 07:44:39;;;;;;;;;35.25;32.00;;;;;;;;5016358;28;8798;-52
2022/05/07 07:50:38;;;;;;;;;48.50;39.75;;;;;;;;5010909;28;8810;-54
2022/05/07 07:53:24;;;;;;;;;42.75;36.75;;;;;;;;5018564;28;8772;-49
2022/05/07 07:56:12;;;;;;;;;48.75;38.25;;;;;;;;5015202;28;8776;-55
2022/05/07 07:58:56;;;;;;;;;35.25;30.00;;;;;;;;5025202;28;8802;-53
2022/05/07 08:01:42;;;;;;;;;29.50;29.00;;;;;;;;5015001;28;8782;-53
2022/05/07 08:04:26;;;;;;;;;34.25;28.50;;;;;;;;5013334;28;8787;-49
2022/05/07 08:13:17;;;;;;;;;37.25;31.50;;;;;;;;5016244;28;8786;-55
2022/05/07 08:16:02;;;;;;;;;32.75;29.00;;;;;;;;5020117;28;8792;-50
2022/05/07 08:18:46;;;;;;;;;32.75;27.75;;;;;;;;5026311;28;8794;-52
2022/05/07 08:21:32;;;;;;;;;40.75;32.25;;;;;;;;5013971;28;8810;-52
2022/05/07 08:24:17;;;;;;;;;43.75;34.50;;;;;;;;5015792;28;8775;-54
2022/05/07 08:27:05;;;;;;;;;35.00;30.00;;;;;;;;5013707;28;8803;-53
2022/05/07 08:29:50;;;;;;;;;45.50;38.25;;;;;;;;5013731;28;8782;-54
2022/05/07 08:32:36;;;;;;;;;43.75;35.25;;;;;;;;5017994;28;8792;-55
2022/05/07 08:35:23;;;;;;;;;37.75;33.25;;;;;;;;5017010;28;8779;-55
2022/05/07 08:38:11;;;;;;;;;35.75;30.25;;;;;;;;5016909;28;8788;-55
2022/05/07 08:40:56;;;;;;;;;30.25;26.75;;;;;;;;5019785;28;8771;-54
2022/05/07 08:43:45;;;;;;;;;23.25;21.75;;;;;;;;5027518;28;8783;-54
2022/05/07 08:46:30;;;;;;;;;19.25;18.50;;;;;;;;5019353;28;8800;-54
2022/05/07 08:49:16;;;;;;;;;26.50;24.50;;;;;;;;5031002;28;8776;-50
2022/05/07 08:52:03;;;;;;;;;23.50;23.25;;;;;;;;5020124;28;8783;-53
2022/05/07 08:54:47;;;;;;;;;25.75;24.25;;;;;;;;5018984;28;8767;-56
2022/05/07 08:57:32;;;;;;;;;37.25;30.00;;;;;;;;5016255;28;8808;-53
2022/05/07 09:00:19;;;;;;;;;27.00;25.50;;;;;;;;5026189;28;8811;-53
2022/05/07 09:03:08;;;;;;;;;26.25;22.75;;;;;;;;5014512;28;8802;-55
2022/05/07 09:05:52;;;;;;;;;26.75;24.50;;;;;;;;5026030;28;8938;-52
2022/05/07 09:08:38;;;;;;;;;17.00;16.00;;;;;;;;5015104;28;8778;-52
2022/05/07 09:11:23;;;;;;;;;18.25;17.00;;;;;;;;5016149;28;8787;-51
2022/05/07 09:14:07;;;;;;;;;24.25;17.00;;;;;;;;5021997;28;8780;-52
2022/05/07 09:16:51;;;;;;;;;18.00;17.00;;;;;;;;5024779;28;8794;-53
2022/05/07 09:19:37;;;;;;;;;23.25;20.75;;;;;;;;5014320;28;8791;-54
2022/05/07 09:22:21;;;;;;;;;22.25;19.50;;;;;;;;5023628;28;8792;-55
2022/05/07 09:25:05;;;;;;;;;20.50;19.50;;;;;;;;5016761;28;8791;-54
2022/05/07 09:27:51;;;;;;;;;20.00;16.75;;;;;;;;5013842;28;8827;-53
2022/05/07 09:30:38;;;;;;;;;14.50;14.25;;;;;;;;5014088;28;8802;-55
2022/05/07 09:33:41;;;;;;;;;23.25;23.25;;;;;;;;5018801;28;8810;-50
2022/05/07 09:36:25;;;;;;;;;29.00;24.00;;;;;;;;5028838;28;8796;-50
2022/05/07 09:39:15;;;;;;;;;25.00;23.50;;;;;;;;5033790;28;8776;-49
2022/05/07 09:42:01;;;;;;;;;17.50;15.25;;;;;;;;5019798;28;8795;-53
2022/05/07 09:44:45;;;;;;;;;24.50;23.00;;;;;;;;5027496;28;9041;-53
2022/05/07 09:47:30;;;;;;;;;33.25;30.50;;;;;;;;5033681;28;9041;-51
2022/05/07 09:50:43;;;;;;;;;34.50;27.25;;;;;;;;5014356;28;8787;-53
2022/05/07 09:59:32;;;;;;;;;23.00;20.25;;;;;;;;5015607;28;8803;-52
2022/05/07 10:02:18;;;;;;;;;31.75;24.25;;;;;;;;5014291;28;8790;-53
2022/05/07 10:05:16;;;;;;;;;28.75;25.00;;;;;;;;5013819;28;8799;-51
2022/05/07 10:08:19;;;;;;;;;12.00;12.00;;;;;;;;5030842;28;8800;-52
2022/05/07 10:11:04;;;;;;;;;21.00;20.00;;;;;;;;5033582;28;8804;-53
2022/05/07 10:13:55;;;;;;;;;21.25;21.25;;;;;;;;5033487;28;8804;-53
2022/05/07 10:16:41;;;;;;;;;48.00;39.50;;;;;;;;5014329;28;8811;-53
2022/05/07 10:19:44;;;;;;;;;18.00;16.25;;;;;;;;5013410;28;8826;-49
2022/05/07 10:22:28;;;;;;;;;20.75;20.00;;;;;;;;5013749;28;8775;-53
2022/05/07 10:25:13;;;;;;;;;20.25;18.25;;;;;;;;5013807;28;8799;-49
2022/05/07 10:28:06;;;;;;;;;20.25;18.75;;;;;;;;5013726;28;8806;-53
2022/05/07 10:30:56;;;;;;;;;20.00;18.00;;;;;;;;5013525;28;8779;-52
2022/05/07 10:33:40;;;;;;;;;17.50;16.25;;;;;;;;5027822;28;9576;-51
2022/05/07 10:36:37;;;;;;;;;19.25;18.25;;;;;;;;5045455;28;8792;-51
2022/05/07 10:39:22;;;;;;;;;12.00;11.50;;;;;;;;5019628;28;9082;-52
2022/05/07 10:42:16;;;;;;;;;23.25;19.50;;;;;;;;5031060;28;8788;-52
2022/05/07 10:45:15;;;;;;;;;29.00;25.50;;;;;;;;5019534;28;8786;-54
2022/05/07 10:48:02;;;;;;;;;26.25;25.25;;;;;;;;5029512;28;8816;-53
2022/05/07 10:50:52;;;;;;;;;28.00;27.25;;;;;;;;5016010;28;8787;-53
2022/05/07 10:53:41;;;;;;;;;30.25;27.50;;;;;;;;5032627;28;8788;-52
2022/05/07 10:56:27;;;;;;;;;33.50;30.50;;;;;;;;5028011;28;8775;-53
2022/05/07 10:59:13;;;;;;;;;33.00;29.00;;;;;;;;5017158;28;8767;-49
2022/05/07 11:02:05;;;;;;;;;32.50;27.75;;;;;;;;5020207;28;8763;-51
2022/05/07 11:04:51;;;;;;;;;10.25;10.00;;;;;;;;5031475;28;8776;-51
2022/05/07 11:07:35;;;;;;;;;26.25;24.75;;;;;;;;5021570;28;8819;-51
2022/05/07 11:10:20;;;;;;;;;17.50;15.75;;;;;;;;5019773;28;8901;-52
2022/05/07 11:13:05;;;;;;;;;19.00;19.00;;;;;;;;5026072;28;8763;-52
2022/05/07 11:15:50;;;;;;;;;22.25;21.00;;;;;;;;5032113;28;8772;-53
2022/05/07 11:18:34;;;;;;;;;20.00;19.50;;;;;;;;5022675;28;8795;-51
2022/05/07 11:21:23;;;;;;;;;20.75;20.00;;;;;;;;5015895;28;8786;-51
2022/05/07 11:24:09;;;;;;;;;23.25;18.75;;;;;;;;5016187;28;8791;-53
2022/05/07 11:26:54;;;;;;;;;16.75;14.75;;;;;;;;5015739;28;8795;-53
2022/05/07 11:29:40;;;;;;;;;21.25;18.75;;;;;;;;5017737;28;8771;-54
2022/05/07 11:32:38;;;;;;;;;14.25;14.25;;;;;;;;5017950;28;8776;-57
2022/05/07 11:35:28;;;;;;;;;17.25;16.00;;;;;;;;5023249;28;8771;-59
2022/05/07 11:38:14;;;;;;;;;17.75;15.75;;;;;;;;5020252;28;8775;-58
2022/05/07 11:41:12;;;;;;;;;17.25;15.25;;;;;;;;5028657;28;8771;-55
2022/05/07 11:47:02;;;;;;;;;16.50;13.50;;;;;;;;5016441;28;8799;-60
2022/05/07 11:50:04;;;;;;;;;17.00;16.50;;;;;;;;5028729;28;9568;-56
2022/05/07 11:52:53;;;;;;;;;16.50;13.25;;;;;;;;5035278;28;9551;-58
2022/05/07 11:55:39;;;;;;;;;16.50;13.75;;;;;;;;5026177;28;8800;-57
2022/05/07 11:58:25;;;;;;;;;17.50;15.25;;;;;;;;5036353;28;8792;-55
2022/05/07 12:01:21;;;;;;;;;17.25;15.00;;;;;;;;5034624;28;8807;-58
2022/05/07 12:04:09;;;;;;;;;20.50;16.25;;;;;;;;5022800;28;8826;-59
2022/05/07 12:06:56;;;;;;;;;17.25;15.25;;;;;;;;5032632;28;8808;-57
2022/05/07 12:09:40;;;;;;;;;13.25;13.25;;;;;;;;5018048;28;8791;-59
2022/05/07 12:12:25;;;;;;;;;16.75;15.50;;;;;;;;5034959;28;8768;-60
2022/05/07 12:15:09;;;;;;;;;12.50;12.50;;;;;;;;5024457;28;9522;-53
2022/05/07 12:17:56;;;;;;;;;15.25;13.25;;;;;;;;5020865;28;8784;-57
2022/05/07 12:20:42;;;;;;;;;20.00;16.25;;;;;;;;5034283;28;8911;-57
2022/05/07 12:29:50;;;;;;;;;15.00;12.25;;;;;;;;5018457;28;8783;-56
2022/05/07 12:32:34;;;;;;;;;15.00;12.00;;;;;;;;5033407;27;8800;-56
2022/05/07 12:35:20;;;;;;;;;12.75;11.50;;;;;;;;5034907;28;9548;-54
2022/05/07 12:38:05;;;;;;;;;18.75;14.00;;;;;;;;5020533;28;10120;-57
2022/05/07 12:40:50;;;;;;;;;13.75;12.50;;;;;;;;5017746;28;8782;-59
2022/05/07 12:43:35;;;;;;;;;16.50;14.25;;;;;;;;5031723;28;8785;-58
2022/05/07 12:46:23;;;;;;;;;13.50;12.25;;;;;;;;5032859;28;8812;-59
2022/05/07 12:49:09;;;;;;;;;15.50;13.00;;;;;;;;5032189;28;8788;-56
2022/05/07 12:51:53;;;;;;;;;11.25;10.00;;;;;;;;5033155;28;8785;-57
2022/05/07 12:54:39;;;;;;;;;12.50;11.00;;;;;;;;5033104;28;8784;-59
2022/05/07 12:57:24;;;;;;;;;15.00;11.50;;;;;;;;5034353;28;8792;-58
2022/05/07 13:00:09;;;;;;;;;12.00;11.00;;;;;;;;5034656;28;8788;-58
2022/05/07 13:02:56;;;;;;;;;14.25;12.00;;;;;;;;5034711;28;8800;-57
2022/05/07 13:05:42;;;;;;;;;10.25;9.75;;;;;;;;5034880;28;9722;-55
2022/05/07 13:08:28;;;;;;;;;11.25;9.00;;;;;;;;5034839;28;9584;-57
2022/05/07 13:11:13;;;;;;;;;11.25;8.75;;;;;;;;5034236;28;8780;-57
2022/05/07 13:13:57;;;;;;;;;12.00;7.50;;;;;;;;5034175;28;8812;-57
2022/05/07 13:16:43;;;;;;;;;10.00;8.75;;;;;;;;5034483;28;8803;-58
2022/05/07 13:19:28;;;;;;;;;10.00;10.00;;;;;;;;5033933;28;8777;-57
2022/05/07 13:22:14;;;;;;;;;10.00;8.25;;;;;;;;5034241;28;8788;-59
2022/05/07 13:24:58;;;;;;;;;10.00;7.50;;;;;;;;5034299;28;8776;-60
2022/05/07 13:27:44;;;;;;;;;8.00;7.50;;;;;;;;5034139;28;8812;-55
2022/05/07 13:30:28;;;;;;;;;9.00;7.50;;;;;;;;5034176;28;8796;-59
2022/05/07 13:33:15;;;;;;;;;6.75;6.75;;;;;;;;5033719;28;8780;-59
2022/05/07 13:36:00;;;;;;;;;7.00;7.00;;;;;;;;5016675;28;8807;-58
2022/05/07 13:38:45;;;;;;;;;8.00;7.25;;;;;;;;5013926;28;9653;-58
2022/05/07 13:41:31;;;;;;;;;7.50;6.50;;;;;;;;5034272;28;8812;-56
2022/05/07 13:44:15;;;;;;;;;8.25;8.00;;;;;;;;5026160;28;8783;-59
2022/05/07 13:47:03;;;;;;;;;11.50;10.25;;;;;;;;5016795;28;8803;-57
2022/05/07 13:49:48;;;;;;;;;8.50;7.00;;;;;;;;5018261;28;8787;-60
2022/05/07 13:52:36;;;;;;;;;6.50;6.00;;;;;;;;5017874;28;9708;-59
2022/05/07 13:55:21;;;;;;;;;10.50;7.00;;;;;;;;5030357;28;8776;-59
2022/05/07 13:58:09;;;;;;;;;8.00;5.25;;;;;;;;5016151;28;8921;-61
2022/05/07 14:00:53;;;;;;;;;7.50;6.50;;;;;;;;5014161;28;8783;-57
2022/05/07 14:03:40;;;;;;;;;12.50;8.00;;;;;;;;5014274;28;8782;-60
2022/05/07 14:06:24;;;;;;;;;5.00;5.00;;;;;;;;5014064;28;8803;-60
2022/05/07 14:09:09;;;;;;;;;11.00;7.50;;;;;;;;5013973;28;8874;-55
2022/05/07 14:11:55;;;;;;;;;11.00;7.75;;;;;;;;5028492;28;8765;-57
2022/05/07 14:14:40;;;;;;;;;7.75;7.75;;;;;;;;5033577;28;8789;-58
2022/05/07 14:17:24;;;;;;;;;7.75;6.00;;;;;;;;5033825;28;8788;-60
2022/05/07 14:20:12;;;;;;;;;9.75;7.50;;;;;;;;5041488;28;8811;-60
2022/05/07 14:22:59;;;;;;;;;8.00;7.50;;;;;;;;5013980;28;8775;-61
2022/05/07 14:25:53;;;;;;;;;12.75;9.75;;;;;;;;5013646;28;8799;-55
2022/05/07 14:28:37;;;;;;;;;7.25;6.75;;;;;;;;5013636;28;9563;-61
2022/05/07 14:31:22;;;;;;;;;7.50;6.50;;;;;;;;5028443;28;8800;-61
2022/05/07 14:34:06;;;;;;;;;7.00;5.25;;;;;;;;5027327;28;8787;-59
2022/05/07 14:36:51;;;;;;;;;7.50;7.50;;;;;;;;5013284;28;8824;-61
2022/05/07 14:39:37;;;;;;;;;5.75;5.75;;;;;;;;5023796;28;8788;-57
2022/05/07 14:42:22;;;;;;;;;8.25;8.00;;;;;;;;5032875;28;8784;-55
2022/05/07 14:45:09;;;;;;;;;11.25;8.75;;;;;;;;5036608;28;8769;-59
2022/05/07 14:47:55;;;;;;;;;10.50;6.75;;;;;;;;5036898;28;8812;-59
2022/05/07 14:50:42;;;;;;;;;8.00;7.00;;;;;;;;5036916;28;8792;-59
2022/05/07 14:53:28;;;;;;;;;10.00;8.25;;;;;;;;5036735;28;8796;-62
2022/05/07 14:56:13;;;;;;;;;7.50;7.50;;;;;;;;5036542;28;8792;-61
2022/05/07 14:58:58;;;;;;;;;11.00;9.75;;;;;;;;5036669;28;8788;-58
2022/05/07 15:01:43;;;;;;;;;12.00;8.75;;;;;;;;5049655;28;8796;-55
2022/05/07 15:04:28;;;;;;;;;10.00;8.00;;;;;;;;5036428;28;8789;-61
2022/05/07 15:07:13;;;;;;;;;6.75;6.25;;;;;;;;5036654;28;8824;-56
2022/05/07 15:13:02;;;;;;;;;11.00;10.25;;;;;;;;5030645;28;8781;-61
2022/05/07 15:15:47;;;;;;;;;11.50;8.00;;;;;;;;5036014;28;10229;-60
2022/05/07 15:18:32;;;;;;;;;10.00;9.00;;;;;;;;5036256;28;8902;-57
2022/05/07 15:21:18;;;;;;;;;11.25;9.00;;;;;;;;5036130;28;8792;-58
2022/05/07 15:24:03;;;;;;;;;10.25;10.25;;;;;;;;5035768;28;8804;-59
2022/05/07 15:26:49;;;;;;;;;13.25;11.50;;;;;;;;5034676;28;9595;-55
2022/05/07 15:29:34;;;;;;;;;10.50;9.75;;;;;;;;5035090;28;8793;-58
2022/05/07 15:38:25;;;;;;;;;8.50;8.00;;;;;;;;5032213;28;8784;-62
2022/05/07 15:41:10;;;;;;;;;9.75;6.75;;;;;;;;5018901;28;8775;-57
2022/05/07 15:43:56;;;;;;;;;7.25;7.25;;;;;;;;5015398;28;9554;-61
2022/05/07 15:46:43;;;;;;;;;8.00;7.00;;;;;;;;5015594;28;9562;-58
2022/05/07 15:49:28;;;;;;;;;5.50;5.50;;;;;;;;5015316;28;8783;-61
2022/05/07 15:52:15;;;;;;;;;8.25;7.00;;;;;;;;5015308;28;8911;-57
2022/05/07 15:54:59;;;;;;;;;8.25;8.25;;;;;;;;5015028;28;8783;-60
2022/05/07 15:57:45;;;;;;;;;7.50;7.50;;;;;;;;5034647;28;8784;-59
2022/05/07 16:00:29;;;;;;;;;7.75;5.75;;;;;;;;5035531;28;9530;-62
2022/05/07 16:03:16;;;;;;;;;5.25;5.25;;;;;;;;5035798;28;8792;-60
2022/05/07 16:06:01;;;;;;;;;7.00;7.00;;;;;;;;5035720;28;8772;-59
2022/05/07 16:08:47;;;;;;;;;7.00;7.00;;;;;;;;5035400;28;8784;-58
2022/05/07 16:11:31;;;;;;;;;8.25;7.00;;;;;;;;5035381;28;8796;-61
2022/05/07 16:14:16;;;;;;;;;5.00;5.00;;;;;;;;5035521;28;8776;-59
2022/05/07 16:17:01;;;;;;;;;5.75;4.25;;;;;;;;5035507;28;8934;-58
2022/05/07 16:19:45;;;;;;;;;6.25;5.00;;;;;;;;5035015;28;8793;-59
2022/05/07 16:25:34;;;;;;;;;5.00;4.75;;;;;;;;5035474;28;8780;-59
2022/05/07 16:28:18;;;;;;;;;5.75;3.25;;;;;;;;5035251;28;8812;-56
2022/05/07 16:31:04;;;;;;;;;4.25;4.25;;;;;;;;5035099;28;8777;-61
2022/05/07 16:33:48;;;;;;;;;4.75;4.75;;;;;;;;5035275;28;8827;-55
2022/05/07 16:36:33;;;;;;;;;6.50;5.25;;;;;;;;5035191;28;8808;-55
2022/05/07 16:39:18;;;;;;;;;7.00;5.25;;;;;;;;5034677;28;8781;-58
2022/05/07 16:42:04;;;;;;;;;5.00;5.00;;;;;;;;5014883;28;8905;-58
2022/05/07 16:44:48;;;;;;;;;5.50;4.00;;;;;;;;5019177;28;8790;-61
2022/05/07 16:47:33;;;;;;;;;4.75;4.50;;;;;;;;5017530;28;8807;-57
2022/05/07 16:50:21;;;;;;;;;6.00;5.00;;;;;;;;5025273;28;8776;-58
2022/05/07 16:53:05;;;;;;;;;9.75;6.00;;;;;;;;5025584;28;8725;-57
2022/05/07 16:55:49;;;;;;;;;7.00;7.00;;;;;;;;5018056;28;8783;-57
2022/05/07 16:58:34;;;;;;;;;8.25;6.25;;;;;;;;5018835;28;8802;-57
2022/05/07 17:01:20;;;;;;;;;7.25;6.75;;;;;;;;5033686;28;8909;-58
2022/05/07 17:04:04;;;;;;;;;5.50;5.50;;;;;;;;5024131;28;8799;-59
2022/05/07 17:06:49;;;;;;;;;8.00;6.50;;;;;;;;5022997;28;8812;-55
2022/05/07 17:09:41;;;;;;;;;7.00;5.00;;;;;;;;5020266;28;8783;-53
2022/05/07 17:12:25;;;;;;;;;6.50;5.50;;;;;;;;5029320;28;8791;-59
2022/05/07 17:15:09;;;;;;;;;7.00;4.50;;;;;;;;5021833;28;8786;-57
2022/05/07 17:17:57;;;;;;;;;9.25;5.50;;;;;;;;5030849;28;8788;-55